ADDS METAR Data INFO
IDs: Format: Raw Decoded Include TAF

Data at: 2332 UTC 15 Dec 2017

KBFW 152313Z AUTO 00000KT 10SM BKN080 M14/M17 A2975 RMK AO2
KBFW 152252Z AUTO 00000KT 10SM CLR M14/M16 A2975 RMK AO2
KBFW 152232Z AUTO 00000KT 10SM CLR M14/M16 A2975 RMK AO2
KBFW 152212Z AUTO 00000KT 10SM CLR M12/M15 A2975 RMK AO2
KBFW 152152Z AUTO 00000KT 10SM SCT090 M11/M15 A2975 RMK AO2
KBFW 152132Z AUTO 00000KT 10SM SCT090 M11/M15 A2975 RMK AO2
KBFW 152113Z AUTO 00000KT 10SM BKN090 M10/M16 A2975 RMK AO2
KBFW 152052Z AUTO 00000KT 10SM BKN090 M09/M16 A2975 RMK AO2
KBFW 152032Z AUTO 00000KT 10SM SCT090 M09/M16 A2974 RMK AO2
KBFW 152013Z AUTO 27003KT 10SM CLR M10/M16 A2974 RMK AO2
KBFW 151952Z AUTO 27004KT 10SM CLR M09/M16 A2975 RMK AO2
KBFW 151852Z AUTO 27004KT 10SM CLR M09/M16 A2977 RMK AO2
KBFW 151834Z AUTO 27003KT 10SM CLR M09/M16 A2977 RMK AO2
KBFW 151812Z AUTO 28004KT 10SM CLR M09/M16 A2978 RMK AO2
KBFW 151752Z AUTO 29004KT 10SM CLR M09/M16 A2978 RMK AO2
KBFW 151732Z AUTO 29004KT 10SM CLR M09/M16 A2979 RMK AO2
KBFW 151712Z AUTO 32005KT 10SM CLR M10/M16 A2980 RMK AO2
KBFW 151652Z AUTO 32006KT 10SM CLR M10/M16 A2980 RMK AO2
KBFW 151632Z AUTO 33006KT 10SM SCT024 M11/M16 A2981 RMK AO2
KBFW 151612Z AUTO 30005KT 10SM BKN024 M11/M16 A2981 RMK AO2
KBFW 151552Z AUTO 30003KT 10SM OVC026 M11/M16 A2981 RMK AO2
KBFW 151532Z AUTO 31005KT 10SM OVC026 M11/M16 A2981 RMK AO2
KBFW 151513Z AUTO 31007KT 280V340 10SM BKN026 M11/M16 A2980 RMK AO2
KBFW 151452Z AUTO 30005KT 10SM BKN028 M11/M17 A2980 RMK AO2
KBFW 151432Z AUTO 29006KT 10SM CLR M12/M17 A2980 RMK AO2
KBFW 151412Z AUTO 28003KT 10SM SCT028 M13/M17 A2980 RMK AO2
KBFW 151352Z AUTO 31004KT 10SM OVC028 M12/M16 A2980 RMK AO2
KBFW 151332Z AUTO 33004KT 10SM SCT023 OVC030 M12/M16 A2980 RMK AO2
KBFW 151312Z AUTO 34003KT 5SM HZ SCT023 OVC030 M12/M15 A2980 RMK AO2
KBFW 151252Z AUTO 00000KT 10SM OVC028 M12/M14 A2980 RMK AO2
KBFW 151232Z AUTO 33006KT 10SM OVC028 M11/M14 A2980 RMK AO2
KBFW 151212Z AUTO 29004KT 10SM SCT023 BKN030 M12/M15 A2980 RMK AO2
KBFW 151052Z AUTO 31006KT 10SM SCT013 SCT050 M12/M14 A2981 RMK AO2
KBFW 151032Z AUTO 31008KT 7SM -SN SCT013 M12/M14 A2980 RMK AO2
KBFW 151012Z AUTO 32005KT 10SM CLR M12/M14 A2979 RMK AO2
KBFW 150952Z AUTO 30004KT 10SM CLR M12/M14 A2980 RMK AO2
KBFW 150934Z AUTO 31007KT 280V340 10SM SCT060 M12/M14 A2980 RMK AO2
KBFW 150912Z AUTO 30004KT 10SM BKN060 M11/M14 A2981 RMK AO2
KBFW 150852Z AUTO 31005KT 10SM OVC060 M11/M14 A2980 RMK AO2
KBFW 150832Z AUTO 30007KT 260V330 10SM OVC060 M11/M14 A2980 RMK AO2
KBFW 150812Z AUTO 31005KT 10SM OVC070 M11/M14 A2980 RMK AO2
KBFW 150752Z AUTO 00000KT 10SM OVC070 M12/M14 A2980 RMK AO2
KBFW 150732Z AUTO 32003KT 10SM BKN070 M12/M14 A2981 RMK AO2
KBFW 150712Z AUTO 30004KT 10SM BKN080 M12/M14 A2981 RMK AO2
KBFW 150652Z AUTO 31005KT 10SM OVC080 M11/M14 A2982 RMK AO2
KBFW 150633Z AUTO 31005KT 10SM OVC080 M11/M14 A2982 RMK AO2
KBFW 150612Z AUTO 32006KT 10SM OVC080 M11/M14 A2982 RMK AO2
KBFW 150552Z AUTO 31006KT 10SM BKN080 M11/M14 A2982 RMK AO2
KBFW 150532Z AUTO 31010G14KT 280V340 10SM SCT090 M11/M14 A2982 RMK AO2
KBFW 150512Z AUTO 30004KT 10SM BKN090 M11/M14 A2983 RMK AO2
KBFW 150452Z AUTO 31006KT 10SM BKN090 M10/M14 A2983 RMK AO2
KBFW 150432Z AUTO 31005KT 10SM OVC090 M10/M14 A2983 RMK AO2
KBFW 150314Z AUTO 31005KT 10SM SCT038 BKN049 OVC060 M09/M12 A2985 RMK AO2
KBFW 150252Z AUTO 29004KT 7SM BKN038 OVC047 M09/M12 A2986 RMK AO2
KBFW 150232Z AUTO 31004KT 7SM -SN SCT032 BKN038 OVC047 M09/M12 A2987 RMK
KBFW 150212Z AUTO 30004KT 7SM -SN SCT032 SCT041 OVC060 M09/M12 A2986 RMK
KBFW 150152Z AUTO 29003KT 10SM OVC060 M09/M12 A2986 RMK AO2
KBFW 150132Z AUTO 29003KT 7SM -SN SCT039 BKN060 M09/M12 A2987 RMK AO2
KBFW 150112Z AUTO 00000KT 10SM -SN BKN039 BKN060 M09/M12 A2987 RMK AO2
KBFW 150052Z AUTO 00000KT 10SM OVC039 M09/M12 A2988 RMK AO2
KBFW 150032Z AUTO 00000KT 10SM OVC039 M08/M12 A2989 RMK AO2
KBFW 150012Z AUTO 00000KT 10SM -SN OVC041 M08/M12 A2989 RMK AO2
KBFW 142352Z AUTO 25003KT 10SM -SN OVC043 M08/M11 A2989 RMK AO2
KBFW 142332Z AUTO 00000KT 10SM SCT027 OVC043 M08/M11 A2990 RMK AO2
KBFW 142312Z AUTO 29005KT 10SM BKN027 OVC043 M08/M11 A2991 RMK AO2
KBFW 142252Z AUTO 26003KT 10SM -SN OVC025 M08/M11 A2990 RMK AO2
KBFW 142233Z AUTO 00000KT 5SM -SN OVC023 M08/M11 A2990 RMK AO2
KBFW 142212Z AUTO 00000KT 5SM -SN OVC021 M08/M11 A2990 RMK AO2
KBFW 142152Z AUTO 27003KT 7SM -SN OVC021 M08/M11 A2991 RMK AO2
KBFW 142132Z AUTO 00000KT 7SM -SN OVC021 M08/M11 A2990 RMK AO2
KBFW 142112Z AUTO 00000KT 10SM -SN OVC021 M07/M11 A2990 RMK AO2
KBFW 142052Z AUTO 29003KT 10SM OVC021 M07/M11 A2989 RMK AO2
KBFW 142032Z AUTO 00000KT 10SM OVC021 M07/M10 A2989 RMK AO2
KBFW 142012Z AUTO 00000KT 10SM OVC021 M07/M11 A2989 RMK AO2
KBFW 141813Z AUTO 26003KT 10SM SCT019 M07/M11 A2991 RMK AO2
KBFW 141752Z AUTO 23003KT 10SM BKN019 M07/M10 A2992 RMK AO2
KBFW 141732Z AUTO 24005KT 10SM BKN019 M06/M10 A2992 RMK AO2
KBFW 141712Z AUTO 00000KT 10SM SCT019 M09/M11 A2993 RMK AO2
KBFW 141652Z AUTO 00000KT 7SM -SN SCT028 M08/M11 A2993 RMK AO2
KBFW 141632Z AUTO 00000KT 3SM -SN SCT018 SCT026 BKN033 M09/M11 A2994 RMK
KBFW 141452Z AUTO 00000KT 4SM -SN SCT014 M17/M18 A2993 RMK AO2
KBFW 141432Z AUTO 00000KT 5SM -SN SCT014 M21/M23 A2993 RMK AO2
KBFW 141412Z AUTO 00000KT 4SM -SN BKN014 M19/M21 A2993 RMK AO2
KBFW 141356Z AUTO 00000KT 7SM -SN OVC014 M22/M24 A2993 RMK AO2
KBFW 141332Z AUTO 00000KT 7SM -SN OVC014 M19/M21 A2993 RMK AO2
KBFW 141312Z AUTO 00000KT 10SM BKN014 M21/M23 A2992 RMK AO2
KBFW 141252Z AUTO 00000KT 7SM -SN SCT014 M21/M23 A2992 RMK AO2
KBFW 141153Z AUTO 00000KT 10SM CLR M21/M23 A2992 RMK AO2